Time;durP1;ratioP1;P1;durP2;ratioP2;P2;SDS_P1;SDS_P2;PMS_P1;PMS_P2;Temp;Humidity;BMP_temperature;BMP_pressure;BME280_temperature;BME280_humidity;BME280_pressure;Samples;Min_cycle;Max_cycle;Signal;HPM_P1;HPM_P2
2023/04/10 00:02:13;;;;;;;6.47;5.65;;;10.20;99.90;;;;;;4993914;28;20557;-92
2023/04/10 00:04:38;;;;;;;6.10;5.50;;;9.80;99.90;;;;;;4993590;28;20022;-91
2023/04/10 00:07:04;;;;;;;6.07;5.45;;;10.10;99.90;;;;;;4993706;28;20038;-91
2023/04/10 00:09:30;;;;;;;5.85;5.22;;;10.30;99.90;;;;;;4993486;28;20420;-91
2023/04/10 00:11:56;;;;;;;6.40;5.55;;;10.50;99.90;;;;;;4993684;28;20034;-91
2023/04/10 00:14:23;;;;;;;7.07;5.53;;;10.70;99.90;;;;;;4993476;28;20025;-91
2023/04/10 00:16:49;;;;;;;7.63;5.72;;;10.80;99.90;;;;;;4992367;28;20034;-91
2023/04/10 00:19:16;;;;;;;7.03;5.80;;;10.70;99.90;;;;;;4992444;28;20033;-91
2023/04/10 00:21:42;;;;;;;6.97;6.10;;;10.60;99.90;;;;;;4993599;28;20398;-91
2023/04/10 00:24:07;;;;;;;6.85;5.82;;;10.60;99.90;;;;;;4993643;28;20033;-91
2023/04/10 00:26:34;;;;;;;6.57;5.75;;;10.60;99.90;;;;;;4992883;28;20030;-91
2023/04/10 00:29:01;;;;;;;6.80;5.85;;;10.90;99.90;;;;;;4993559;28;20386;-91
2023/04/10 00:31:26;;;;;;;6.50;5.90;;;10.70;99.90;;;;;;4993168;28;20030;-91
2023/04/10 00:33:52;;;;;;;6.70;5.88;;;10.70;99.90;;;;;;4992099;28;20026;-91
2023/04/10 00:36:18;;;;;;;9.23;6.13;;;10.40;99.90;;;;;;4992684;28;20030;-91
2023/04/10 00:38:44;;;;;;;7.70;6.03;;;9.80;99.90;;;;;;4993336;28;20077;-91
2023/04/10 00:41:10;;;;;;;6.28;5.47;;;9.40;99.90;;;;;;4993079;28;20038;-91
2023/04/10 00:43:35;;;;;;;6.15;5.55;;;9.30;99.90;;;;;;4993215;28;20022;-91
2023/04/10 00:46:03;;;;;;;7.57;5.93;;;9.30;99.90;;;;;;4994031;28;20037;-92
2023/04/10 00:48:31;;;;;;;7.07;6.15;;;9.20;99.90;;;;;;5012413;28;20025;-91
2023/04/10 00:50:56;;;;;;;6.95;6.18;;;9.10;99.90;;;;;;4996614;28;20045;-91
2023/04/10 00:53:22;;;;;;;7.65;6.20;;;9.10;99.90;;;;;;4996975;28;20023;-91
2023/04/10 00:55:49;;;;;;;7.05;5.93;;;9.50;99.90;;;;;;4996947;28;20030;-91
2023/04/10 00:58:14;;;;;;;6.85;5.60;;;9.80;99.90;;;;;;5011699;28;20034;-92
2023/04/10 01:00:40;;;;;;;6.60;5.85;;;9.80;99.90;;;;;;4996516;28;20041;-91
2023/04/10 01:03:08;;;;;;;6.80;6.10;;;9.70;99.90;;;;;;4996491;28;20033;-91
2023/04/10 01:06:07;;;;;;;7.22;6.32;;;9.20;99.90;;;;;;4996613;28;20030;-91
2023/04/10 01:08:43;;;;;;;7.07;6.00;;;9.00;99.90;;;;;;4996820;28;20033;-92
2023/04/10 01:11:23;;;;;;;6.43;5.82;;;9.30;99.90;;;;;;4994829;28;20050;-91
2023/04/10 01:14:04;;;;;;;6.47;5.72;;;9.30;99.90;;;;;;4996764;28;20034;-92
2023/04/10 01:16:48;;;;;;;6.10;5.43;;;9.30;99.90;;;;;;4995850;28;20478;-91
2023/04/10 01:19:31;;;;;;;5.95;5.20;;;9.40;99.90;;;;;;4995852;28;20038;-91
2023/04/10 01:22:01;;;;;;;6.40;4.95;;;9.70;99.90;;;;;;4996022;28;20034;-92
2023/04/10 01:24:57;;;;;;;6.45;5.75;;;9.90;99.90;;;;;;4996220;28;20026;-91
2023/04/10 01:27:42;;;;;;;6.72;6.03;;;9.60;99.90;;;;;;4996398;28;20532;-91
2023/04/10 01:30:13;;;;;;;8.27;5.70;;;9.50;99.90;;;;;;4996215;28;20478;-92
2023/04/10 01:32:40;;;;;;;8.48;6.63;;;9.60;99.90;;;;;;4996232;28;20075;-91
2023/04/10 01:35:07;;;;;;;8.55;6.90;;;10.00;99.90;;;;;;4994359;28;20110;-91
2023/04/10 01:37:39;;;;;;;8.38;6.90;;;10.00;99.90;;;;;;4995048;28;20041;-91
2023/04/10 01:40:09;;;;;;;7.43;5.90;;;10.20;99.90;;;;;;4994762;28;20054;-91
2023/04/10 01:42:40;;;;;;;6.38;5.45;;;9.60;99.90;;;;;;4994476;28;20030;-91
2023/04/10 01:45:11;;;;;;;6.82;5.68;;;9.20;99.90;;;;;;4995725;28;20014;-91
2023/04/10 01:47:36;;;;;;;7.18;6.13;;;8.70;99.90;;;;;;4996118;28;20479;-91
2023/04/10 01:50:03;;;;;;;7.85;5.93;;;8.60;99.90;;;;;;4995958;28;20022;-91
2023/04/10 01:52:30;;;;;;;6.70;5.75;;;9.10;99.90;;;;;;4996046;28;20390;-91
2023/04/10 01:54:57;;;;;;;7.07;6.32;;;9.40;99.90;;;;;;4995632;28;20022;-91
2023/04/10 01:57:23;;;;;;;6.47;5.88;;;9.30;99.90;;;;;;5009859;28;20043;-91
2023/04/10 01:59:49;;;;;;;7.57;5.78;;;9.20;99.90;;;;;;4995550;28;20026;-91
2023/04/10 02:02:14;;;;;;;6.60;5.95;;;8.90;99.90;;;;;;4995092;28;20096;-90
2023/04/10 02:04:40;;;;;;;6.18;5.57;;;8.50;99.90;;;;;;4995510;28;20027;-91
2023/04/10 02:07:18;;;;;;;6.05;5.45;;;8.40;99.90;;;;;;4995229;28;20117;-91
2023/04/10 02:09:55;;;;;;;6.20;5.60;;;8.30;99.90;;;;;;4995273;28;20050;-90
2023/04/10 02:12:38;;;;;;;6.38;5.78;;;8.70;99.90;;;;;;4995418;28;20038;-91
2023/04/10 02:15:07;;;;;;;5.95;4.85;;;9.00;99.90;;;;;;4995309;28;20062;-90
2023/04/10 02:17:34;;;;;;;8.77;6.28;;;9.30;99.90;;;;;;4994795;28;20030;-91
2023/04/10 02:20:01;;;;;;;7.70;6.75;;;9.40;99.90;;;;;;4994200;28;20049;-91
2023/04/10 02:22:27;;;;;;;7.65;6.85;;;9.30;99.90;;;;;;4993857;28;20046;-91
2023/04/10 02:24:53;;;;;;;8.48;7.18;;;9.50;99.90;;;;;;4995117;28;20140;-91
2023/04/10 02:27:38;;;;;;;8.10;6.97;;;9.80;99.90;;;;;;4995060;28;20027;-91
2023/04/10 02:30:05;;;;;;;8.38;7.07;;;9.90;99.90;;;;;;4993696;28;20027;-91
2023/04/10 02:32:32;;;;;;;7.10;6.40;;;9.50;99.90;;;;;;4994897;28;20030;-91
2023/04/10 02:34:58;;;;;;;8.13;5.93;;;9.80;99.90;;;;;;4993647;28;20034;-91
2023/04/10 02:37:24;;;;;;;6.05;5.45;;;9.80;99.90;;;;;;4995315;28;20030;-91
2023/04/10 02:39:51;;;;;;;6.47;5.38;;;9.90;99.90;;;;;;4994835;28;20057;-90
2023/04/10 02:42:16;;;;;;;5.95;5.35;;;9.40;99.90;;;;;;4995216;28;20038;-91
2023/04/10 02:44:42;;;;;;;5.85;5.00;;;9.20;99.90;;;;;;4996276;28;20026;-91
2023/04/10 02:47:08;;;;;;;5.20;4.53;;;9.30;99.90;;;;;;5012894;28;20034;-91
2023/04/10 02:49:34;;;;;;;5.90;5.10;;;8.90;99.90;;;;;;5014347;28;20022;-90
2023/04/10 02:52:00;;;;;;;6.63;5.57;;;8.50;99.90;;;;;;5014109;28;20100;-91
2023/04/10 02:54:26;;;;;;;6.53;5.35;;;8.10;99.90;;;;;;5014512;28;20025;-91
2023/04/10 02:56:52;;;;;;;6.47;5.85;;;8.10;99.90;;;;;;5008861;28;20026;-91
2023/04/10 02:59:18;;;;;;;7.07;6.25;;;8.20;99.90;;;;;;4994438;28;20448;-92
2023/04/10 03:01:45;;;;;;;7.47;6.25;;;8.40;99.90;;;;;;4994088;28;20553;-91
2023/04/10 03:04:11;;;;;;;6.95;6.18;;;8.60;99.90;;;;;;4994433;28;20026;-91
2023/04/10 03:06:37;;;;;;;6.88;6.05;;;8.60;99.90;;;;;;4994571;28;20033;-91
2023/04/10 03:09:02;;;;;;;8.10;6.47;;;8.60;99.90;;;;;;4994290;28;20035;-91
2023/04/10 03:11:29;;;;;;;7.75;6.60;;;8.40;99.90;;;;;;4993472;28;20097;-92
2023/04/10 03:13:57;;;;;;;8.10;6.10;;;8.30;99.90;;;;;;4994296;28;20093;-91
2023/04/10 03:16:22;;;;;;;7.82;5.95;;;7.90;99.90;;;;;;4993172;28;20038;-91
2023/04/10 03:18:48;;;;;;;6.95;5.72;;;8.20;99.90;;;;;;4994525;28;20030;-92
2023/04/10 03:21:14;;;;;;;8.27;6.78;;;8.30;99.90;;;;;;4994083;28;20096;-91
2023/04/10 03:23:40;;;;;;;7.65;6.47;;;8.20;99.90;;;;;;4994097;28;20018;-91
2023/04/10 03:26:05;;;;;;;7.90;6.43;;;8.40;99.90;;;;;;4994753;28;20471;-93
2023/04/10 03:28:34;;;;;;;9.05;7.50;;;8.50;99.90;;;;;;4994086;28;20486;-91
2023/04/10 03:31:00;;;;;;;9.40;7.55;;;8.20;99.90;;;;;;4993446;28;20061;-91
2023/04/10 03:33:26;;;;;;;9.13;7.93;;;8.30;99.90;;;;;;4994090;28;20487;-91
2023/04/10 03:35:52;;;;;;;8.32;7.43;;;8.20;99.90;;;;;;4993902;28;20034;-91
2023/04/10 03:38:18;;;;;;;9.35;7.90;;;8.30;99.90;;;;;;4994400;28;20392;-92
2023/04/10 03:40:44;;;;;;;8.55;7.57;;;8.20;99.90;;;;;;4993912;28;20054;-91
2023/04/10 03:43:09;;;;;;;8.45;7.55;;;8.60;99.90;;;;;;4993771;28;20022;-91
2023/04/10 03:45:35;;;;;;;8.88;7.70;;;8.60;99.90;;;;;;4993265;28;20019;-91
2023/04/10 03:48:01;;;;;;;8.63;7.72;;;8.40;99.90;;;;;;4994105;28;20414;-91
2023/04/10 03:50:26;;;;;;;8.95;7.90;;;8.60;99.90;;;;;;4993644;28;20474;-93
2023/04/10 03:52:52;;;;;;;9.60;7.55;;;8.40;99.90;;;;;;4993700;28;20042;-92
2023/04/10 03:55:18;;;;;;;8.13;7.05;;;8.40;99.90;;;;;;4993651;28;20426;-92
2023/04/10 03:57:47;;;;;;;8.43;7.22;;;8.10;99.90;;;;;;4993624;28;20145;-91
2023/04/10 04:00:16;;;;;;;7.95;7.10;;;8.00;99.90;;;;;;4993455;28;20026;-92
2023/04/10 04:02:42;;;;;;;8.52;7.72;;;8.10;99.90;;;;;;4993966;28;20031;-92
2023/04/10 04:05:08;;;;;;;9.07;7.65;;;8.30;99.90;;;;;;4993770;28;20019;-92
2023/04/10 04:07:34;;;;;;;7.78;6.78;;;8.60;99.90;;;;;;4993581;28;20040;-91
2023/04/10 04:10:00;;;;;;;7.95;6.90;;;8.70;99.90;;;;;;4993349;28;20515;-91
2023/04/10 04:12:26;;;;;;;9.02;7.55;;;8.70;99.90;;;;;;4992213;28;20031;-92
2023/04/10 04:14:51;;;;;;;7.53;6.32;;;8.70;99.90;;;;;;4992092;28;20125;-91
2023/04/10 04:17:17;;;;;;;8.35;7.10;;;8.70;99.90;;;;;;4993580;28;20027;-92
2023/04/10 04:19:43;;;;;;;7.82;7.03;;;8.70;99.90;;;;;;4993381;28;20027;-91
2023/04/10 04:22:09;;;;;;;7.70;6.90;;;8.80;99.90;;;;;;4996082;28;20042;-91
2023/04/10 04:24:35;;;;;;;9.45;7.78;;;8.80;99.90;;;;;;4997562;28;20050;-91
2023/04/10 04:27:01;;;;;;;8.65;7.35;;;8.70;99.90;;;;;;4997258;28;20050;-91
2023/04/10 04:29:27;;;;;;;8.27;7.38;;;8.80;99.90;;;;;;4997276;28;20042;-93
2023/04/10 04:31:52;;;;;;;8.25;7.43;;;8.50;99.90;;;;;;4999037;28;20031;-92
2023/04/10 04:34:18;;;;;;;9.02;7.78;;;8.50;99.90;;;;;;4997626;28;20034;-92
2023/04/10 04:36:43;;;;;;;8.75;7.47;;;8.50;99.90;;;;;;4997291;28;20046;-92
2023/04/10 04:39:09;;;;;;;10.63;8.18;;;8.50;99.90;;;;;;4997007;28;20483;-91
2023/04/10 04:41:35;;;;;;;8.40;7.55;;;8.60;99.90;;;;;;4997470;28;20042;-92
2023/04/10 04:44:01;;;;;;;8.63;6.55;;;8.50;99.90;;;;;;4996757;28;20105;-91
2023/04/10 04:46:27;;;;;;;7.40;6.70;;;8.60;99.90;;;;;;4996794;28;20033;-91
2023/04/10 04:48:53;;;;;;;7.40;6.47;;;8.70;99.90;;;;;;4996764;28;20026;-91
2023/04/10 04:51:18;;;;;;;8.30;6.60;;;8.70;99.90;;;;;;4996561;28;20033;-91
2023/04/10 04:53:44;;;;;;;7.75;6.78;;;8.70;99.90;;;;;;4996087;28;20172;-93
2023/04/10 04:56:10;;;;;;;8.48;7.25;;;8.80;99.90;;;;;;4995924;28;20121;-93
2023/04/10 04:58:36;;;;;;;7.28;6.47;;;8.90;99.90;;;;;;4995723;28;20034;-92
2023/04/10 05:01:02;;;;;;;7.38;6.57;;;9.30;99.90;;;;;;4995722;28;20519;-93
2023/04/10 05:03:27;;;;;;;7.07;6.38;;;9.00;99.90;;;;;;4997241;28;20192;-93
2023/04/10 05:05:54;;;;;;;7.07;6.38;;;9.00;99.90;;;;;;4996023;28;20038;-93
2023/04/10 05:08:19;;;;;;;8.23;6.35;;;9.00;99.90;;;;;;4997144;28;20047;-93
2023/04/10 05:10:45;;;;;;;7.20;6.50;;;8.90;99.90;;;;;;4996131;28;20512;-92
2023/04/10 05:13:11;;;;;;;7.50;6.30;;;8.90;99.90;;;;;;4995184;28;20442;-93
2023/04/10 05:15:38;;;;;;;7.70;6.90;;;9.00;99.90;;;;;;4996879;28;20042;-93
2023/04/10 05:18:04;;;;;;;7.05;6.35;;;8.90;99.90;;;;;;4997083;28;20451;-93
2023/04/10 05:20:30;;;;;;;7.25;6.55;;;8.90;99.90;;;;;;4996780;28;20042;-93
2023/04/10 05:22:57;;;;;;;7.45;6.72;;;9.10;99.90;;;;;;4995235;28;20026;-91
2023/04/10 05:25:23;;;;;;;7.25;6.25;;;9.20;99.90;;;;;;4996190;28;20081;-94
2023/04/10 05:27:49;;;;;;;6.93;6.22;;;9.20;99.90;;;;;;4994656;28;20038;-93
2023/04/10 05:30:15;;;;;;;6.50;5.82;;;9.20;99.90;;;;;;4997054;28;20030;-93
2023/04/10 05:32:40;;;;;;;6.55;5.95;;;9.10;99.90;;;;;;4994193;28;20038;-93
2023/04/10 05:35:07;;;;;;;6.22;5.63;;;9.30;99.90;;;;;;4994631;28;20046;-93
2023/04/10 05:37:32;;;;;;;6.63;6.03;;;9.40;99.90;;;;;;4996097;28;20395;-94
2023/04/10 05:39:58;;;;;;;6.63;6.03;;;9.40;99.90;;;;;;4995555;28;20045;-93
2023/04/10 05:42:24;;;;;;;6.55;5.75;;;9.30;99.90;;;;;;4996139;28;20034;-93
2023/04/10 05:44:51;;;;;;;7.45;5.80;;;9.40;99.90;;;;;;4995799;28;20026;-93
2023/04/10 05:47:17;;;;;;;6.82;6.10;;;9.40;99.90;;;;;;4975200;28;20165;-93
2023/04/10 05:49:42;;;;;;;7.25;6.53;;;9.40;99.90;;;;;;4976077;28;20511;-93
2023/04/10 05:52:08;;;;;;;7.38;6.45;;;9.40;99.90;;;;;;4976217;28;20439;-93
2023/04/10 05:54:34;;;;;;;6.53;5.80;;;9.30;99.90;;;;;;4976140;28;20038;-93
2023/04/10 05:57:00;;;;;;;6.53;5.85;;;9.40;99.90;;;;;;4981798;28;20113;-93
2023/04/10 05:59:26;;;;;;;6.85;6.13;;;9.40;99.90;;;;;;4995921;28;20428;-93
2023/04/10 06:01:52;;;;;;;6.15;5.55;;;9.40;99.90;;;;;;4995416;28;20069;-93
2023/04/10 06:04:17;;;;;;;7.00;6.10;;;9.40;99.90;;;;;;4994332;28;20434;-93
2023/04/10 06:06:43;;;;;;;6.47;5.88;;;9.40;99.90;;;;;;4995479;28;20034;-94
2023/04/10 06:09:09;;;;;;;7.22;5.70;;;9.50;99.90;;;;;;4994962;28;20019;-93
2023/04/10 06:11:34;;;;;;;6.60;6.00;;;9.60;99.90;;;;;;4995632;28;20042;-92
2023/04/10 06:14:00;;;;;;;6.18;5.45;;;9.70;99.90;;;;;;4995336;28;20034;-93
2023/04/10 06:16:26;;;;;;;6.40;5.80;;;9.70;99.90;;;;;;4995301;28;20030;-93
2023/04/10 06:18:52;;;;;;;7.20;6.00;;;9.80;99.90;;;;;;4995390;28;20033;-93
2023/04/10 06:21:18;;;;;;;6.40;5.38;;;10.00;99.90;;;;;;4995408;28;20046;-93
2023/04/10 06:23:44;;;;;;;6.35;5.72;;;10.00;99.90;;;;;;4994396;28;20475;-93
2023/04/10 06:26:10;;;;;;;5.65;5.15;;;10.10;99.90;;;;;;4993806;28;20025;-93
2023/04/10 06:28:36;;;;;;;7.40;5.85;;;10.20;99.90;;;;;;4995034;28;20034;-93
2023/04/10 06:31:03;;;;;;;5.82;5.32;;;10.20;99.90;;;;;;4993760;28;20072;-94
2023/04/10 06:33:29;;;;;;;8.23;5.63;;;10.30;99.90;;;;;;4994929;28;20030;-93
2023/04/10 06:35:54;;;;;;;5.82;5.32;;;10.50;99.90;;;;;;4995025;28;20501;-93
2023/04/10 06:38:20;;;;;;;6.25;5.65;;;10.50;99.90;;;;;;4994473;28;20030;-92
2023/04/10 06:40:46;;;;;;;7.43;6.20;;;10.70;99.90;;;;;;4994994;28;20401;-93
2023/04/10 06:43:11;;;;;;;6.53;5.82;;;10.70;99.90;;;;;;4994660;28;20144;-93
2023/04/10 06:45:37;;;;;;;8.38;6.03;;;10.80;99.90;;;;;;4994402;28;20029;-93
2023/04/10 06:48:03;;;;;;;6.55;5.88;;;10.70;99.90;;;;;;4994787;28;20044;-93
2023/04/10 06:50:29;;;;;;;7.10;6.40;;;10.70;99.90;;;;;;4995101;28;20022;-93
2023/04/10 06:52:58;;;;;;;6.82;6.20;;;10.80;99.90;;;;;;4994193;28;20501;-93
2023/04/10 06:55:27;;;;;;;7.43;6.18;;;10.80;99.90;;;;;;4994650;28;20367;-93
2023/04/10 06:57:54;;;;;;;7.93;6.40;;;11.00;99.90;;;;;;4994631;28;20541;-93
2023/04/10 07:00:20;;;;;;;6.20;5.60;;;11.30;99.90;;;;;;4993197;28;20026;-93
2023/04/10 07:02:46;;;;;;;6.55;5.95;;;11.00;99.90;;;;;;4994838;28;20029;-93
2023/04/10 07:05:12;;;;;;;6.60;5.85;;;11.00;99.90;;;;;;4995287;28;20030;-93
2023/04/10 07:07:38;;;;;;;7.93;5.93;;;11.10;99.90;;;;;;4993243;28;20022;-93
2023/04/10 07:10:05;;;;;;;7.40;6.15;;;11.30;99.90;;;;;;4993734;28;20057;-91
2023/04/10 07:12:31;;;;;;;6.55;5.80;;;11.40;99.90;;;;;;5005239;28;20113;-92
2023/04/10 07:14:57;;;;;;;6.47;5.88;;;11.40;99.90;;;;;;5002532;28;20070;-87
2023/04/10 07:17:23;;;;;;;6.13;5.57;;;11.40;99.90;;;;;;4993429;28;20022;-85
2023/04/10 07:19:49;;;;;;;6.55;5.95;;;11.60;99.90;;;;;;4987376;28;20027;-85
2023/04/10 07:22:15;;;;;;;6.10;5.50;;;11.70;99.90;;;;;;4985621;28;20173;-85
2023/04/10 07:24:42;;;;;;;7.57;6.03;;;11.70;99.90;;;;;;4993235;28;20046;-85
2023/04/10 07:27:07;;;;;;;6.80;5.75;;;11.80;99.90;;;;;;4992817;28;20084;-83
2023/04/10 07:29:33;;;;;;;8.18;6.50;;;12.00;99.90;;;;;;4993104;28;20029;-84
2023/04/10 07:31:59;;;;;;;7.18;5.82;;;12.10;99.90;;;;;;4992608;28;20458;-84
2023/04/10 07:34:25;;;;;;;7.50;6.13;;;12.10;99.90;;;;;;4992340;28;20109;-84
2023/04/10 07:36:51;;;;;;;6.03;5.43;;;12.10;99.90;;;;;;4990828;28;20038;-84
2023/04/10 07:39:17;;;;;;;6.63;6.00;;;12.30;99.90;;;;;;4992677;28;20022;-87
2023/04/10 07:41:42;;;;;;;6.63;5.97;;;12.40;99.90;;;;;;4992816;28;20392;-85
2023/04/10 07:44:08;;;;;;;7.45;6.13;;;12.50;99.90;;;;;;4992673;28;20018;-85
2023/04/10 07:46:34;;;;;;;6.35;5.70;;;12.70;99.90;;;;;;4989885;28;20105;-80
2023/04/10 07:48:59;;;;;;;7.65;5.22;;;12.80;99.90;;;;;;4980399;28;20023;-86
2023/04/10 07:51:26;;;;;;;5.65;5.15;;;12.80;99.90;;;;;;4988148;28;20034;-81
2023/04/10 07:53:52;;;;;;;5.75;5.15;;;12.90;99.90;;;;;;4982550;28;20377;-87
2023/04/10 07:56:18;;;;;;;8.25;5.68;;;12.90;99.90;;;;;;4973748;28;20041;-79
2023/04/10 07:58:45;;;;;;;10.20;5.90;;;13.00;99.90;;;;;;4993450;28;20019;-85
2023/04/10 08:01:11;;;;;;;6.30;5.20;;;13.40;99.90;;;;;;4981932;28;20037;-85
2023/04/10 08:03:43;;;;;;;5.32;4.82;;;13.40;99.90;;;;;;4991502;28;20503;-84
2023/04/10 08:06:10;;;;;;;5.57;5.07;;;13.30;99.90;;;;;;4987222;28;20027;-85
2023/04/10 08:08:36;;;;;;;5.85;4.90;;;13.40;99.90;;;;;;4992595;28;20041;-85
2023/04/10 08:11:06;;;;;;;4.80;4.30;;;13.50;99.90;;;;;;4998795;28;20055;-88
2023/04/10 08:13:32;;;;;;;4.90;4.15;;;13.50;99.90;;;;;;4992330;28;20037;-85
2023/04/10 08:15:57;;;;;;;4.75;4.35;;;13.60;99.90;;;;;;4992403;28;20471;-85
2023/04/10 08:18:23;;;;;;;4.72;4.20;;;13.70;99.90;;;;;;4991426;28;20510;-84
2023/04/10 08:20:48;;;;;;;4.50;4.10;;;13.80;99.90;;;;;;4990207;28;20027;-83
2023/04/10 08:23:14;;;;;;;5.07;4.57;;;13.90;99.90;;;;;;4981475;28;20085;-84
2023/04/10 08:25:40;;;;;;;4.40;4.00;;;14.00;99.90;;;;;;4979934;28;20436;-86
2023/04/10 08:28:05;;;;;;;4.63;4.20;;;14.30;99.90;;;;;;4976019;28;20030;-86
2023/04/10 08:30:31;;;;;;;4.63;3.80;;;14.50;99.90;;;;;;4991231;28;20109;-90
2023/04/10 08:32:56;;;;;;;5.78;4.53;;;14.40;99.90;;;;;;4992180;28;20038;-87
2023/04/10 08:35:22;;;;;;;5.03;4.55;;;14.50;99.90;;;;;;4990470;28;20023;-84
2023/04/10 08:37:48;;;;;;;4.97;4.47;;;14.60;99.90;;;;;;4988613;28;20038;-85
2023/04/10 08:40:14;;;;;;;4.95;4.32;;;14.70;99.90;;;;;;4984200;28;20041;-84
2023/04/10 08:42:40;;;;;;;4.10;3.70;;;14.90;99.90;;;;;;4974340;28;20125;-84
2023/04/10 08:45:06;;;;;;;5.68;3.67;;;15.10;99.90;;;;;;4992286;28;20109;-84
2023/04/10 08:47:38;;;;;;;4.00;3.70;;;15.10;99.90;;;;;;5010147;28;20026;-86
2023/04/10 08:50:11;;;;;;;4.57;4.18;;;15.00;99.90;;;;;;4991218;28;20041;-84
2023/04/10 08:52:42;;;;;;;6.45;4.00;;;15.00;99.90;;;;;;4992822;28;20018;-85
2023/04/10 08:55:10;;;;;;;4.13;3.72;;;15.00;99.90;;;;;;4991814;28;20077;-84
2023/04/10 08:57:37;;;;;;;4.85;4.07;;;15.20;99.90;;;;;;4992929;28;20026;-84
2023/04/10 09:00:03;;;;;;;4.53;4.13;;;15.20;99.90;;;;;;4991821;28;20026;-84
2023/04/10 09:02:29;;;;;;;3.97;3.67;;;15.40;99.90;;;;;;4991813;28;20031;-84
2023/04/10 09:04:57;;;;;;;4.15;3.78;;;15.30;99.90;;;;;;4991699;28;20037;-84
2023/04/10 09:07:23;;;;;;;4.10;3.70;;;15.50;99.90;;;;;;4993551;28;20026;-86
2023/04/10 09:09:49;;;;;;;4.85;4.18;;;15.50;99.90;;;;;;4993688;28;20042;-88
2023/04/10 09:12:15;;;;;;;3.75;3.45;;;15.60;99.90;;;;;;4994695;28;20038;-84
2023/04/10 09:14:41;;;;;;;3.85;3.45;;;15.70;99.90;;;;;;4995259;28;20034;-86
2023/04/10 09:17:15;;;;;;;3.85;3.55;;;16.00;99.90;;;;;;4995347;28;20019;-84
2023/04/10 09:19:41;;;;;;;3.63;3.33;;;16.20;99.90;;;;;;4994381;28;20077;-84
2023/04/10 09:22:07;;;;;;;3.90;3.60;;;16.20;99.90;;;;;;4995426;28;20057;-87
2023/04/10 09:24:40;;;;;;;4.00;3.60;;;16.30;99.90;;;;;;4995176;28;20026;-84
2023/04/10 09:27:06;;;;;;;4.45;3.58;;;16.60;99.90;;;;;;4991267;28;20061;-84
2023/04/10 09:29:49;;;;;;;3.97;3.58;;;16.70;99.90;;;;;;4995287;28;20022;-85
2023/04/10 09:32:40;;;;;;;3.97;3.22;;;16.80;99.90;;;;;;4988104;28;20065;-86
2023/04/10 09:35:07;;;;;;;3.92;3.53;;;17.10;99.90;;;;;;4976460;28;20517;-85
2023/04/10 09:37:37;;;;;;;6.28;3.22;;;17.20;99.90;;;;;;4975744;28;20499;-85
2023/04/10 09:40:03;;;;;;;4.15;3.60;;;17.40;99.90;;;;;;4982311;28;20033;-85
2023/04/10 09:42:35;;;;;;;3.50;3.20;;;17.50;99.90;;;;;;4994740;28;20042;-85
2023/04/10 09:45:02;;;;;;;4.28;3.15;;;17.70;99.90;;;;;;4988345;28;20499;-85
2023/04/10 09:47:28;;;;;;;3.58;3.28;;;17.80;99.90;;;;;;4998691;28;20050;-86
2023/04/10 09:49:57;;;;;;;4.65;3.40;;;17.70;99.90;;;;;;4977494;28;20458;-91
2023/04/10 09:52:25;;;;;;;3.75;3.22;;;17.70;99.90;;;;;;4979206;28;20042;-91
2023/04/10 09:54:56;;;;;;;4.03;3.63;;;17.90;99.90;;;;;;4977100;28;20023;-89
2023/04/10 09:57:23;;;;;;;3.75;3.20;;;17.80;99.90;;;;;;4976124;28;20030;-91
2023/04/10 09:59:54;;;;;;;6.07;2.90;;;18.00;99.90;;;;;;4975809;28;20029;-90
2023/04/10 10:02:22;;;;;;;3.35;3.05;;;18.30;99.90;;;;;;4977311;28;20446;-91
2023/04/10 10:04:49;;;;;;;4.57;3.30;;;18.50;99.90;;;;;;4996542;28;20022;-90
2023/04/10 10:07:16;;;;;;;3.50;3.20;;;18.60;99.90;;;;;;4995253;28;20405;-90
2023/04/10 10:09:46;;;;;;;4.18;3.20;;;18.70;99.90;;;;;;4993755;28;20038;-88
2023/04/10 10:12:32;;;;;;;3.75;3.30;;;18.90;99.90;;;;;;4993433;28;20050;-86
2023/04/10 10:15:26;;;;;;;4.15;3.10;;;19.10;99.90;;;;;;4992739;28;20026;-86
2023/04/10 10:18:20;;;;;;;8.15;7.28;;;19.40;99.90;;;;;;4987146;28;20038;-86
2023/04/10 10:20:46;;;;;;;6.60;6.00;;;20.10;99.90;;;;;;4989206;28;20026;-88
2023/04/10 10:23:14;;;;;;;4.13;3.72;;;20.50;99.90;;;;;;4994271;28;20038;-87
2023/04/10 10:25:40;;;;;;;4.93;4.53;;;20.90;99.90;;;;;;4993906;28;20003;-90
2023/04/10 10:28:09;;;;;;;3.70;3.40;;;21.00;99.90;;;;;;4995030;28;20109;-90
2023/04/10 10:30:36;;;;;;;4.25;3.85;;;21.50;99.90;;;;;;4993068;28;20018;-93
2023/04/10 10:33:06;;;;;;;6.03;5.50;;;22.00;99.90;;;;;;4992943;28;20034;-88
2023/04/10 10:35:34;;;;;;;7.22;6.53;;;22.20;99.90;;;;;;4993174;28;20030;-90
2023/04/10 10:38:02;;;;;;;3.30;3.00;;;22.30;99.90;;;;;;4993987;28;20475;-90
2023/04/10 10:40:30;;;;;;;3.05;2.85;;;22.10;99.90;;;;;;4993636;28;20022;-90
2023/04/10 10:43:46;;;;;;;3.25;3.05;;;22.30;99.90;;;;;;4994820;28;20054;-91
2023/04/10 10:46:20;;;;;;;3.80;2.90;;;22.40;99.90;;;;;;4944822;28;20047;-92
2023/04/10 10:48:58;;;;;;;2.97;2.78;;;22.80;99.90;;;;;;4955800;28;20054;-87
2023/04/10 10:51:45;;;;;;;3.55;2.85;;;22.80;99.90;;;;;;4971428;28;20121;-86
2023/04/10 10:54:37;;;;;;;2.53;2.33;;;23.40;99.90;;;;;;4972079;28;20031;-86
2023/04/10 10:57:07;;;;;;;3.05;2.30;;;23.20;99.90;;;;;;4969363;28;20039;-86
2023/04/10 10:59:42;;;;;;;3.30;2.58;;;22.90;99.90;;;;;;4971382;28;20093;-86
2023/04/10 11:02:18;;;;;;;2.65;2.45;;;22.80;99.90;;;;;;4971015;28;20133;-86
2023/04/10 11:04:45;;;;;;;3.47;2.58;;;22.40;99.90;;;;;;4972934;28;20049;-84
2023/04/10 11:07:12;;;;;;;4.30;2.72;;;22.30;99.90;;;;;;4972006;28;20218;-86
2023/04/10 11:09:53;;;;;;;3.53;2.70;;;22.40;99.90;;;;;;4971212;28;20034;-87
2023/04/10 11:12:24;;;;;;;2.60;2.40;;;22.30;99.90;;;;;;4958842;28;20041;-91
2023/04/10 11:15:02;;;;;;;2.60;2.40;;;22.60;99.90;;;;;;4972109;28;20066;-90
2023/04/10 11:17:50;;;;;;;3.13;2.50;;;23.10;99.90;;;;;;4951363;28;20502;-87
2023/04/10 11:20:26;;;;;;;2.70;2.50;;;23.10;99.90;;;;;;4971388;28;20395;-91
2023/04/10 11:23:11;;;;;;;2.70;2.42;;;23.50;99.90;;;;;;4993653;28;20042;-90
2023/04/10 11:26:03;;;;;;;3.00;2.75;;;24.80;99.90;;;;;;4991150;28;20085;-93
2023/04/10 11:28:32;;;;;;;2.88;2.67;;;25.30;99.90;;;;;;4973345;28;20039;-89
2023/04/10 11:31:20;;;;;;;2.70;2.50;;;25.70;99.90;;;;;;4975856;28;20038;-89
2023/04/10 11:33:59;;;;;;;2.97;2.67;;;26.50;99.90;;;;;;4991693;28;20049;-89
2023/04/10 11:36:26;;;;;;;3.47;2.53;;;26.70;99.90;;;;;;4993008;28;20510;-88
2023/04/10 11:39:01;;;;;;;2.63;2.42;;;27.10;99.90;;;;;;4986787;28;20049;-89
2023/04/10 11:41:38;;;;;;;2.75;2.30;;;27.30;99.90;;;;;;4993023;28;20114;-88
2023/04/10 11:44:05;;;;;;;2.42;2.20;;;27.40;99.90;;;;;;4988381;28;20716;-87
2023/04/10 11:46:38;;;;;;;2.10;2.00;;;27.40;99.90;;;;;;5000499;28;20031;-88
2023/04/10 11:49:05;;;;;;;2.10;1.90;;;27.90;99.90;;;;;;4980611;28;20050;-88
2023/04/10 11:51:32;;;;;;;2.53;1.80;;;27.60;99.90;;;;;;4992724;28;20491;-89
2023/04/10 11:54:04;;;;;;;2.00;1.80;;;29.20;99.90;;;;;;4990642;28;20406;-85
2023/04/10 11:56:29;;;;;;;1.80;1.55;;;28.70;99.90;;;;;;4992790;28;20037;-86
2023/04/10 11:58:55;;;;;;;3.42;1.63;;;27.90;99.90;;;;;;4991840;28;20030;-86
2023/04/10 12:01:22;;;;;;;1.92;1.73;;;26.90;99.90;;;;;;4992568;28;20030;-86
2023/04/10 12:03:47;;;;;;;1.70;1.60;;;26.60;99.90;;;;;;4992321;28;20022;-86
2023/04/10 12:06:14;;;;;;;1.60;1.50;;;26.60;99.90;;;;;;4992660;28;20455;-86
2023/04/10 12:08:42;;;;;;;2.20;2.00;;;25.30;99.90;;;;;;4992195;28;20081;-86
2023/04/10 12:11:09;;;;;;;3.63;2.78;;;24.60;99.90;;;;;;4991042;28;20086;-86
2023/04/10 12:13:35;;;;;;;1.63;1.40;;;24.90;99.90;;;;;;4992604;28;20022;-86
2023/04/10 12:16:06;;;;;;;1.88;1.55;;;24.90;99.90;;;;;;4992573;28;20041;-87
2023/04/10 12:18:32;;;;;;;2.30;1.90;;;24.50;99.90;;;;;;4992936;28;20027;-87
2023/04/10 12:20:59;;;;;;;1.60;1.50;;;24.50;99.90;;;;;;4987794;28;20035;-86
2023/04/10 12:23:28;;;;;;;1.88;1.77;;;24.20;99.90;;;;;;4992607;28;20426;-86
2023/04/10 12:26:15;;;;;;;1.67;1.58;;;24.10;99.90;;;;;;4988326;28;20039;-86
2023/04/10 12:28:55;;;;;;;1.90;1.38;;;24.00;99.90;;;;;;4975557;28;20057;-86
2023/04/10 12:31:33;;;;;;;1.73;1.50;;;24.50;99.90;;;;;;4992330;28;20089;-87
2023/04/10 12:34:00;;;;;;;1.63;1.52;;;25.20;99.90;;;;;;4992398;28;20111;-86
2023/04/10 12:36:28;;;;;;;1.73;1.63;;;26.50;99.90;;;;;;4992049;28;20475;-86
2023/04/10 12:38:55;;;;;;;1.85;1.60;;;26.90;99.90;;;;;;4990323;28;20029;-87
2023/04/10 12:41:23;;;;;;;1.60;1.45;;;26.00;99.90;;;;;;4982967;28;20081;-86
2023/04/10 12:43:49;;;;;;;1.45;1.20;;;26.00;99.90;;;;;;4995802;28;20172;-87
2023/04/10 12:46:26;;;;;;;1.75;1.20;;;26.40;99.90;;;;;;5007456;28;20030;-86
2023/04/10 12:48:53;;;;;;;1.63;1.20;;;26.30;99.90;;;;;;5002177;28;20056;-86
2023/04/10 12:51:18;;;;;;;2.80;1.30;;;25.90;99.90;;;;;;4992671;28;20029;-87
2023/04/10 12:53:45;;;;;;;1.40;1.30;;;25.50;99.90;;;;;;4996028;28;20407;-86
2023/04/10 12:56:12;;;;;;;1.77;1.30;;;25.30;99.90;;;;;;4993301;28;20647;-86
2023/04/10 12:58:38;;;;;;;1.10;1.00;;;25.00;99.90;;;;;;4993296;28;20084;-86